Time;durP1;ratioP1;P1;durP2;ratioP2;P2;SDS_P1;SDS_P2;PMS_P1;PMS_P2;Temp;Humidity;BMP_temperature;BMP_pressure;BME280_temperature;BME280_humidity;BME280_pressure;Samples;Min_cycle;Max_cycle;Signal;HPM_P1;HPM_P2
2021/07/08 00:01:43;;;;;;;1.40;1.27;;;;;;;15.71;93.35;100808.75;5070276;28;20205;-71
2021/07/08 00:04:10;;;;;;;1.40;1.30;;;;;;;15.70;94.26;100809.91;5070671;28;20768;-72
2021/07/08 00:06:36;;;;;;;2.53;1.30;;;;;;;15.77;94.48;100802.72;5070576;28;20211;-71
2021/07/08 00:09:03;;;;;;;1.37;1.20;;;;;;;15.75;94.27;100798.69;5070635;28;20251;-72
2021/07/08 00:11:28;;;;;;;1.20;1.10;;;;;;;15.69;94.53;100798.09;5070416;28;20167;-71
2021/07/08 00:13:54;;;;;;;1.40;1.20;;;;;;;15.65;94.42;100805.41;5070673;28;20177;-74
2021/07/08 00:16:19;;;;;;;2.40;1.33;;;;;;;15.70;93.96;100794.19;5070523;28;20227;-72
2021/07/08 00:18:45;;;;;;;1.50;1.40;;;;;;;15.67;93.79;100802.31;5071079;28;20182;-71
2021/07/08 00:21:11;;;;;;;1.17;1.13;;;;;;;15.58;94.19;100796.03;5070463;28;20182;-72
2021/07/08 00:23:36;;;;;;;1.27;1.23;;;;;;;15.46;94.92;100803.09;5070525;28;20167;-72
2021/07/08 00:26:02;;;;;;;2.20;1.50;;;;;;;15.38;95.33;100803.97;5070654;28;20581;-71
2021/07/08 00:28:28;;;;;;;1.30;1.20;;;;;;;15.41;95.61;100794.22;5070647;28;20170;-72
2021/07/08 00:30:53;;;;;;;1.10;1.00;;;;;;;15.35;95.59;100798.34;5070505;28;20497;-72
2021/07/08 00:33:20;;;;;;;1.40;1.30;;;;;;;15.26;95.85;100789.31;5070939;28;20196;-71
2021/07/08 00:35:47;;;;;;;1.20;1.10;;;;;;;15.18;96.17;100793.72;5071044;28;20174;-71
2021/07/08 00:38:13;;;;;;;1.50;1.40;;;;;;;15.11;96.67;100790.72;5070745;28;20175;-71
2021/07/08 00:40:39;;;;;;;1.03;0.93;;;;;;;15.17;97.15;100790.16;5070799;28;20202;-71
2021/07/08 00:43:05;;;;;;;2.07;1.20;;;;;;;15.08;96.81;100788.63;5070663;28;20267;-71
2021/07/08 00:45:30;;;;;;;1.20;1.07;;;;;;;15.08;97.48;100788.63;5072781;28;20178;-71
2021/07/08 00:47:56;;;;;;;2.47;1.63;;;;;;;15.13;97.39;100785.69;5074496;28;20170;-74
2021/07/08 00:50:25;;;;;;;1.37;1.27;;;;;;;15.15;97.53;100784.19;5074423;28;20163;-72
2021/07/08 00:52:51;;;;;;;1.73;1.20;;;;;;;15.17;97.64;100781.09;5074493;28;20262;-71
2021/07/08 00:55:17;;;;;;;1.67;1.57;;;;;;;15.28;97.88;100784.28;5074386;28;20254;-72
2021/07/08 00:57:53;;;;;;;1.23;1.23;;;;;;;15.43;97.98;100784.50;5074130;28;20171;-72
2021/07/08 01:00:30;;;;;;;2.70;1.37;;;;;;;15.52;96.73;100780.88;5074575;28;20231;-72
2021/07/08 01:02:57;;;;;;;1.40;1.20;;;;;;;15.53;96.30;100788.00;5074074;28;20236;-71
2021/07/08 01:05:29;;;;;;;1.70;1.60;;;;;;;15.50;95.29;100783.97;5074267;28;20266;-71
2021/07/08 01:07:55;;;;;;;2.63;1.20;;;;;;;15.37;95.50;100790.53;5074498;28;20171;-71
2021/07/08 01:10:21;;;;;;;4.37;1.60;;;;;;;15.29;96.25;100783.13;5074246;28;20186;-71
2021/07/08 01:12:46;;;;;;;1.13;1.13;;;;;;;15.40;96.84;100792.63;5074145;28;20174;-72
2021/07/08 01:15:12;;;;;;;1.70;1.60;;;;;;;15.29;97.13;100799.66;5073741;28;20197;-72
2021/07/08 01:17:40;;;;;;;1.87;1.77;;;;;;;15.29;96.88;100805.97;5074031;28;20668;-72
2021/07/08 01:20:07;;;;;;;1.20;1.10;;;;;;;15.23;96.98;100790.78;5073840;28;20175;-72
2021/07/08 01:22:32;;;;;;;1.47;1.37;;;;;;;15.45;96.75;100795.16;5074004;28;20202;-72
2021/07/08 01:24:58;;;;;;;1.30;1.20;;;;;;;15.55;95.65;100789.25;5074146;28;20177;-71
2021/07/08 01:27:23;;;;;;;1.60;1.50;;;;;;;15.54;94.39;100789.59;5074132;28;20280;-72
2021/07/08 01:29:49;;;;;;;1.30;1.17;;;;;;;15.42;94.38;100780.13;5074346;28;20170;-72
2021/07/08 01:32:14;;;;;;;2.00;1.30;;;;;;;15.37;95.27;100780.34;5072643;28;20171;-72
2021/07/08 01:34:40;;;;;;;1.23;1.10;;;;;;;15.36;95.24;100778.72;5074257;28;20189;-72
2021/07/08 01:37:05;;;;;;;2.73;1.00;;;;;;;15.32;95.38;100772.25;5072448;28;20175;-71
2021/07/08 01:39:30;;;;;;;1.50;1.40;;;;;;;15.28;95.62;100776.03;5073952;28;20174;-72
2021/07/08 01:41:56;;;;;;;1.27;1.17;;;;;;;15.28;96.60;100781.53;5073702;28;20205;-72
2021/07/08 01:44:21;;;;;;;1.80;1.50;;;;;;;15.31;96.82;100780.84;5074216;28;20265;-72
2021/07/08 01:46:47;;;;;;;1.97;1.77;;;;;;;15.30;96.43;100777.28;5074614;28;20396;-72
2021/07/08 01:49:12;;;;;;;1.37;1.27;;;;;;;15.32;96.96;100772.25;5072544;28;20312;-72
2021/07/08 01:51:37;;;;;;;1.73;1.63;;;;;;;15.15;97.81;100761.38;5074044;28;20181;-71
2021/07/08 01:54:07;;;;;;;1.67;1.53;;;;;;;15.35;97.44;100768.06;5072651;28;20641;-71
2021/07/08 01:56:33;;;;;;;1.23;1.13;;;;;;;15.48;96.63;100765.03;5073654;28;20536;-71
2021/07/08 01:58:59;;;;;;;2.50;1.03;;;;;;;15.58;96.19;100763.00;5073846;28;20166;-72
2021/07/08 02:01:24;;;;;;;1.50;1.40;;;;;;;15.63;95.58;100765.59;5073591;28;20396;-72
2021/07/08 02:03:50;;;;;;;1.40;1.30;;;;;;;15.70;95.18;100768.59;5078446;28;20159;-72
2021/07/08 02:06:15;;;;;;;1.80;1.63;;;;;;;15.75;94.48;100776.63;5080420;28;20570;-72
2021/07/08 02:08:42;;;;;;;1.93;1.27;;;;;;;15.72;94.14;100785.59;5074153;28;20224;-71
2021/07/08 02:11:08;;;;;;;1.30;1.20;;;;;;;15.70;94.40;100772.16;5072784;28;20171;-72
2021/07/08 02:13:35;;;;;;;1.63;1.20;;;;;;;15.70;94.79;100780.41;5072734;28;20181;-71
2021/07/08 02:16:02;;;;;;;1.20;1.13;;;;;;;15.73;95.34;100781.69;5072518;28;20171;-72
2021/07/08 02:18:28;;;;;;;2.50;1.30;;;;;;;15.79;95.63;100774.03;5072485;28;20253;-71
2021/07/08 02:20:53;;;;;;;1.67;1.43;;;;;;;15.84;95.68;100785.63;5072582;28;20253;-72
2021/07/08 02:23:19;;;;;;;1.50;1.40;;;;;;;15.90;95.45;100789.78;5072212;28;20198;-72
2021/07/08 02:25:44;;;;;;;1.20;1.20;;;;;;;15.95;94.95;100795.09;5072258;28;20202;-71
2021/07/08 02:28:10;;;;;;;1.40;1.27;;;;;;;15.93;94.85;100794.66;5072262;28;20353;-72
2021/07/08 02:30:35;;;;;;;1.20;1.20;;;;;;;15.85;95.06;100798.28;5072504;28;20881;-72
2021/07/08 02:33:01;;;;;;;1.83;1.40;;;;;;;15.76;95.46;100797.53;5072057;28;20183;-71
2021/07/08 02:35:27;;;;;;;2.10;1.70;;;;;;;15.72;96.65;100796.59;5072193;28;20201;-72
2021/07/08 02:37:54;;;;;;;2.03;1.83;;;;;;;15.50;97.58;100792.22;5070752;28;20637;-72
2021/07/08 02:40:24;;;;;;;1.50;1.40;;;;;;;15.39;98.34;100785.50;5071932;28;20177;-72
2021/07/08 02:42:51;;;;;;;2.60;1.70;;;;;;;15.45;98.62;100776.69;5070622;28;20198;-72
2021/07/08 02:45:22;;;;;;;1.70;1.60;;;;;;;15.62;98.51;100786.81;5072090;28;20198;-72
2021/07/08 02:47:48;;;;;;;1.80;1.70;;;;;;;15.67;97.96;100785.81;5071993;28;20521;-72
2021/07/08 02:50:15;;;;;;;1.70;1.60;;;;;;;15.56;96.76;100782.59;5070568;28;20179;-72
2021/07/08 02:52:40;;;;;;;1.50;1.40;;;;;;;15.55;96.20;100769.97;5071496;28;20197;-72
2021/07/08 02:55:06;;;;;;;2.00;1.40;;;;;;;15.75;96.60;100776.63;5071752;28;20206;-72
2021/07/08 02:57:32;;;;;;;3.03;1.57;;;;;;;15.92;95.74;100778.44;5071615;28;20178;-72
2021/07/08 02:59:57;;;;;;;1.33;1.23;;;;;;;16.05;95.28;100780.06;5071636;28;20163;-72
2021/07/08 03:02:22;;;;;;;2.83;1.60;;;;;;;15.98;94.55;100786.16;5071256;28;20218;-72
2021/07/08 03:04:48;;;;;;;1.80;1.70;;;;;;;15.99;93.95;100784.19;5071542;28;20175;-72
2021/07/08 03:07:15;;;;;;;1.87;1.77;;;;;;;15.87;94.26;100784.16;5070720;28;20369;-72
2021/07/08 03:09:40;;;;;;;2.00;1.37;;;;;;;15.95;94.61;100791.53;5071492;28;20177;-71
2021/07/08 03:12:07;;;;;;;2.13;1.40;;;;;;;15.92;94.96;100778.44;5070044;28;20174;-72
2021/07/08 03:14:32;;;;;;;1.20;1.20;;;;;;;15.79;95.63;100788.63;5071368;28;20175;-72
2021/07/08 03:16:58;;;;;;;4.47;1.80;;;;;;;15.63;96.42;100788.44;5071257;28;20523;-71
2021/07/08 03:19:23;;;;;;;1.60;1.50;;;;;;;15.82;96.57;100793.44;5071176;28;20197;-72
2021/07/08 03:21:49;;;;;;;1.87;1.60;;;;;;;15.84;95.70;100795.84;5070873;28;20202;-71
2021/07/08 03:24:15;;;;;;;1.63;1.43;;;;;;;15.76;95.96;100798.34;5071208;28;20170;-71
2021/07/08 03:26:41;;;;;;;1.47;1.37;;;;;;;15.67;96.45;100807.84;5071159;28;20175;-72
2021/07/08 03:29:06;;;;;;;1.70;1.60;;;;;;;15.59;97.28;100814.19;5071244;28;20182;-72
2021/07/08 03:31:31;;;;;;;1.50;1.40;;;;;;;15.57;97.95;100814.50;5070938;28;20225;-71
2021/07/08 03:33:57;;;;;;;1.80;1.27;;;;;;;15.66;98.28;100808.97;5071143;28;20162;-71
2021/07/08 03:36:22;;;;;;;1.70;1.60;;;;;;;15.72;97.43;100813.13;5070968;28;20198;-72
2021/07/08 03:38:47;;;;;;;1.57;1.47;;;;;;;15.79;96.92;100812.59;5070924;28;20198;-72
2021/07/08 03:41:13;;;;;;;1.47;1.37;;;;;;;15.86;96.83;100816.41;5070711;28;20534;-71
2021/07/08 03:43:38;;;;;;;1.63;1.53;;;;;;;15.97;96.91;100811.28;5070839;28;20207;-72
2021/07/08 03:46:03;;;;;;;2.23;1.47;;;;;;;16.03;96.60;100809.94;5070921;28;20269;-72
2021/07/08 03:48:29;;;;;;;2.50;1.50;;;;;;;16.09;96.84;100808.59;5070788;28;20171;-72
2021/07/08 03:50:54;;;;;;;2.93;1.47;;;;;;;16.12;96.43;100798.84;5070599;28;20311;-72
2021/07/08 03:53:19;;;;;;;1.67;1.57;;;;;;;16.21;96.37;100796.81;5070703;28;20178;-72
2021/07/08 03:55:45;;;;;;;1.37;1.27;;;;;;;16.15;96.62;100793.44;5070939;28;20166;-72
2021/07/08 03:58:10;;;;;;;1.60;1.50;;;;;;;16.24;96.58;100802.44;5070838;28;20170;-72
2021/07/08 04:00:39;;;;;;;1.97;1.70;;;;;;;16.30;96.18;100806.56;5070677;28;20249;-72
2021/07/08 04:03:07;;;;;;;1.47;1.37;;;;;;;16.32;96.19;100814.50;5070458;28;20255;-71
2021/07/08 04:05:34;;;;;;;2.40;1.60;;;;;;;16.35;95.76;100819.34;5070681;28;20261;-72
2021/07/08 04:08:00;;;;;;;1.67;1.57;;;;;;;16.35;96.02;100813.84;5070696;28;20175;-72
2021/07/08 04:10:27;;;;;;;2.20;1.60;;;;;;;16.41;95.73;100820.75;5070537;28;20183;-72
2021/07/08 04:12:52;;;;;;;1.57;1.47;;;;;;;16.44;95.42;100822.81;5069487;28;20178;-72
2021/07/08 04:15:18;;;;;;;1.60;1.50;;;;;;;16.44;95.40;100820.06;5070613;28;20228;-72
2021/07/08 04:17:43;;;;;;;2.13;1.80;;;;;;;16.36;95.18;100807.19;5071243;28;20232;-71
2021/07/08 04:20:11;;;;;;;1.80;1.70;;;;;;;16.20;96.12;100811.72;5074595;28;20196;-72
2021/07/08 04:22:36;;;;;;;1.23;1.23;;;;;;;16.01;97.51;100807.50;5074469;28;20244;-72
2021/07/08 04:25:04;;;;;;;1.60;1.50;;;;;;;15.95;97.94;100806.13;5074985;28;20202;-71
2021/07/08 04:27:29;;;;;;;2.00;1.80;;;;;;;16.01;98.51;100807.50;5074491;28;20171;-72
2021/07/08 04:29:55;;;;;;;2.20;1.90;;;;;;;16.09;98.56;100799.53;5074478;28;20258;-72
2021/07/08 04:32:20;;;;;;;1.30;1.20;;;;;;;16.15;98.41;100787.13;5074337;28;20815;-71
2021/07/08 04:34:45;;;;;;;1.90;1.40;;;;;;;16.17;98.55;100801.38;5074571;28;20602;-72
2021/07/08 04:37:11;;;;;;;2.00;1.90;;;;;;;16.21;98.53;100803.13;5074433;28;20253;-72
2021/07/08 04:39:36;;;;;;;1.67;1.57;;;;;;;16.26;99.24;100796.56;5074258;28;20175;-72
2021/07/08 04:42:02;;;;;;;1.70;1.60;;;;;;;16.36;99.61;100791.44;5074092;28;20198;-71
2021/07/08 04:44:28;;;;;;;1.90;1.73;;;;;;;16.50;99.28;100804.09;5072843;28;20657;-72
2021/07/08 04:46:53;;;;;;;1.23;1.20;;;;;;;16.59;99.14;100796.50;5074074;28;20190;-72
2021/07/08 04:49:18;;;;;;;1.83;1.73;;;;;;;16.62;98.84;100804.09;5074048;28;20179;-72
2021/07/08 04:51:44;;;;;;;1.83;1.70;;;;;;;16.65;98.40;100793.19;5073918;28;20646;-71
2021/07/08 04:54:09;;;;;;;1.50;1.43;;;;;;;16.61;98.37;100797.78;5073884;28;20178;-72
2021/07/08 04:56:35;;;;;;;1.87;1.40;;;;;;;16.59;97.55;100786.28;5073831;28;20248;-72
2021/07/08 04:59:00;;;;;;;1.77;1.63;;;;;;;16.62;98.00;100784.78;5072492;28;20181;-72
2021/07/08 05:01:25;;;;;;;1.80;1.70;;;;;;;16.69;98.07;100792.53;5073289;28;20222;-71
2021/07/08 05:03:51;;;;;;;5.33;1.63;;;;;;;16.69;97.84;100809.09;5073807;28;20174;-71
2021/07/08 05:06:16;;;;;;;2.00;1.90;;;;;;;16.65;97.20;100814.47;5073858;28;20178;-71
2021/07/08 05:08:41;;;;;;;1.63;1.53;;;;;;;16.66;97.38;100816.88;5073680;28;20175;-71
2021/07/08 05:11:08;;;;;;;1.53;1.43;;;;;;;16.73;98.11;100824.59;5073867;28;20182;-72
2021/07/08 05:13:34;;;;;;;1.60;1.50;;;;;;;16.76;98.57;100823.91;5073778;28;20540;-72
2021/07/08 05:15:59;;;;;;;2.63;1.50;;;;;;;16.76;98.82;100818.41;5073452;28;20171;-71
2021/07/08 05:18:24;;;;;;;1.70;1.60;;;;;;;16.98;98.69;100819.91;5073584;28;20210;-72
2021/07/08 05:20:50;;;;;;;1.77;1.67;;;;;;;17.07;97.70;100825.31;5073278;28;20175;-72
2021/07/08 05:23:18;;;;;;;1.70;1.60;;;;;;;17.05;96.30;100830.38;5073389;28;20631;-72
2021/07/08 05:25:45;;;;;;;2.33;1.47;;;;;;;17.09;95.85;100823.81;5073471;28;20584;-72
2021/07/08 05:28:12;;;;;;;1.43;1.33;;;;;;;17.20;96.40;100836.00;5073569;28;20236;-72
2021/07/08 05:30:38;;;;;;;1.83;1.63;;;;;;;17.10;96.40;100836.47;5072459;28;20664;-72
2021/07/08 05:33:04;;;;;;;1.90;1.80;;;;;;;17.12;95.95;100834.16;5073097;28;20257;-73
2021/07/08 05:35:29;;;;;;;1.90;1.80;;;;;;;17.32;94.82;100837.94;5073317;28;20179;-72
2021/07/08 05:37:55;;;;;;;2.30;1.80;;;;;;;17.42;94.14;100837.47;5073288;28;20269;-73
2021/07/08 05:40:20;;;;;;;1.83;1.73;;;;;;;17.42;92.70;100845.75;5073126;28;20174;-73
2021/07/08 05:42:46;;;;;;;1.83;1.53;;;;;;;17.32;93.34;100851.75;5071685;28;20202;-72
2021/07/08 05:45:11;;;;;;;1.23;1.20;;;;;;;17.31;93.66;100844.63;5073031;28;20193;-72
2021/07/08 05:47:37;;;;;;;2.50;1.90;;;;;;;17.35;93.73;100839.19;5072904;28;20170;-72
2021/07/08 05:50:04;;;;;;;3.40;1.40;;;;;;;17.42;94.16;100836.66;5072915;28;20182;-72
2021/07/08 05:52:30;;;;;;;2.23;1.70;;;;;;;17.48;93.13;100843.56;5072736;28;20193;-73
2021/07/08 05:54:55;;;;;;;3.07;1.30;;;;;;;17.58;92.81;100853.34;5072730;28;20178;-73
2021/07/08 05:57:21;;;;;;;1.60;1.50;;;;;;;17.70;92.66;100856.91;5072447;28;20228;-73
2021/07/08 05:59:46;;;;;;;5.93;1.53;;;;;;;17.80;91.72;100859.19;5071177;28;20525;-73
2021/07/08 06:02:12;;;;;;;1.63;1.53;;;;;;;17.86;91.00;100862.50;5072274;28;20205;-73
2021/07/08 06:04:37;;;;;;;1.77;1.67;;;;;;;17.90;89.96;100859.84;5072838;28;20178;-72
2021/07/08 06:07:03;;;;;;;1.70;1.60;;;;;;;17.93;89.55;100859.13;5072614;28;20232;-73
2021/07/08 06:09:28;;;;;;;2.13;2.03;;;;;;;18.03;89.63;100858.63;5072336;28;20178;-72
2021/07/08 06:11:53;;;;;;;2.00;1.90;;;;;;;18.10;90.76;100870.72;5070874;28;20576;-73
2021/07/08 06:14:19;;;;;;;2.23;2.00;;;;;;;18.22;92.32;100886.44;5072567;28;20630;-73
2021/07/08 06:16:44;;;;;;;2.20;2.00;;;;;;;18.34;93.85;100886.38;5072289;28;20178;-73
2021/07/08 06:19:10;;;;;;;4.40;1.90;;;;;;;18.51;91.95;100881.69;5072458;28;20630;-73
2021/07/08 06:21:35;;;;;;;2.10;1.93;;;;;;;18.61;91.12;100878.41;5071997;28;20182;-73
2021/07/08 06:24:01;;;;;;;2.10;1.90;;;;;;;18.73;90.16;100875.59;5072361;28;20588;-73
2021/07/08 06:26:26;;;;;;;2.10;1.67;;;;;;;18.67;90.50;100879.81;5072036;28;20174;-73
2021/07/08 06:28:51;;;;;;;2.00;1.90;;;;;;;18.66;91.27;100873.47;5071966;28;20170;-73
2021/07/08 06:31:17;;;;;;;3.57;1.87;;;;;;;18.57;92.19;100872.00;5071636;28;20529;-73
2021/07/08 06:33:44;;;;;;;4.13;1.83;;;;;;;18.40;92.45;100862.88;5071821;28;20202;-71
2021/07/08 06:36:10;;;;;;;3.73;2.20;;;;;;;18.46;92.87;100868.13;5070518;28;20193;-73
2021/07/08 06:38:35;;;;;;;2.90;2.57;;;;;;;18.52;92.67;100858.44;5070938;28;20177;-73
2021/07/08 06:41:01;;;;;;;2.40;2.20;;;;;;;18.68;92.40;100859.28;5071109;28;20267;-73
2021/07/08 06:43:26;;;;;;;2.00;1.90;;;;;;;18.84;92.33;100860.09;5071121;28;20208;-73
2021/07/08 06:45:51;;;;;;;2.07;1.97;;;;;;;18.95;91.74;100860.31;5071556;28;20538;-73
2021/07/08 06:48:17;;;;;;;2.43;2.10;;;;;;;19.09;91.59;100871.75;5064161;28;20232;-73
2021/07/08 06:50:43;;;;;;;2.20;2.00;;;;;;;19.14;90.29;100881.78;5068648;28;20541;-73
2021/07/08 06:53:09;;;;;;;2.03;1.90;;;;;;;19.30;89.51;100888.09;5071294;28;20208;-73
2021/07/08 06:55:37;;;;;;;3.80;1.70;;;;;;;19.37;89.56;100888.25;5071357;28;20344;-73
2021/07/08 06:58:03;;;;;;;1.93;1.73;;;;;;;19.36;89.03;100886.66;5071391;28;20178;-72
2021/07/08 07:00:35;;;;;;;3.10;1.73;;;;;;;19.33;88.89;100892.94;5071213;28;20171;-72
2021/07/08 07:03:01;;;;;;;2.37;2.17;;;;;;;19.38;89.78;100895.41;5071340;28;20209;-72
2021/07/08 07:05:30;;;;;;;1.73;1.63;;;;;;;19.22;89.97;100891.84;5071521;28;20290;-72
2021/07/08 07:07:56;;;;;;;3.47;1.97;;;;;;;18.92;90.76;100889.53;5071215;28;20200;-72
2021/07/08 07:10:23;;;;;;;1.90;1.80;;;;;;;19.06;90.56;100888.28;5071057;28;20179;-72
2021/07/08 07:12:50;;;;;;;2.00;1.90;;;;;;;19.31;89.79;100884.97;5071121;28;20273;-73
2021/07/08 07:15:17;;;;;;;2.20;2.00;;;;;;;19.43;88.98;100886.84;5069905;28;20258;-72
2021/07/08 07:17:43;;;;;;;1.90;1.80;;;;;;;19.33;89.05;100882.66;5070877;28;20262;-72
2021/07/08 07:20:10;;;;;;;1.83;1.73;;;;;;;19.37;89.27;100881.91;5071294;28;20181;-72
2021/07/08 07:22:37;;;;;;;2.83;2.33;;;;;;;19.44;89.77;100888.44;5070614;28;20202;-73
2021/07/08 07:25:06;;;;;;;2.47;2.07;;;;;;;19.59;90.83;100876.53;5070645;28;20182;-72
2021/07/08 07:27:32;;;;;;;2.50;2.40;;;;;;;19.86;90.10;100874.75;5070725;28;20198;-72
2021/07/08 07:30:02;;;;;;;1.90;1.80;;;;;;;20.00;88.53;100871.50;5070698;28;20263;-73
2021/07/08 07:32:27;;;;;;;2.33;2.10;;;;;;;20.01;87.39;100886.97;5070940;28;20171;-72
2021/07/08 07:34:53;;;;;;;2.47;1.60;;;;;;;19.97;88.16;100896.38;5070871;28;20716;-72
2021/07/08 07:37:18;;;;;;;3.50;1.70;;;;;;;19.88;87.31;100896.59;5070811;28;20178;-72
2021/07/08 07:39:43;;;;;;;3.57;2.10;;;;;;;20.13;87.24;100886.81;5070429;28;20186;-73
2021/07/08 07:42:09;;;;;;;2.20;2.10;;;;;;;20.07;85.46;100888.25;5070121;28;20198;-72
2021/07/08 07:44:34;;;;;;;2.07;1.80;;;;;;;20.05;84.61;100882.28;5070790;28;20174;-72
2021/07/08 07:47:00;;;;;;;1.70;1.60;;;;;;;20.15;84.00;100901.13;5071257;28;20568;-72
2021/07/08 07:49:25;;;;;;;2.17;2.07;;;;;;;20.14;83.17;100896.75;5072173;28;20205;-72
2021/07/08 07:51:50;;;;;;;1.83;1.73;;;;;;;20.28;82.89;100906.53;5072121;28;20181;-73
2021/07/08 07:54:16;;;;;;;2.90;2.23;;;;;;;20.34;82.85;100900.31;5071757;28;20177;-72
2021/07/08 07:56:41;;;;;;;1.90;1.80;;;;;;;20.29;82.37;100894.25;5071447;28;20181;-73
2021/07/08 07:59:06;;;;;;;7.90;1.73;;;;;;;20.37;83.71;100890.44;5071286;28;20202;-72
2021/07/08 08:01:32;;;;;;;1.93;1.73;;;;;;;20.63;83.67;100887.81;5071252;28;20273;-73
2021/07/08 08:04:00;;;;;;;2.87;1.80;;;;;;;20.89;83.24;100886.28;5071634;28;20535;-73
2021/07/08 08:09:09;;;;;;;3.10;1.93;;;;;;;21.20;81.27;100891.56;5071572;28;20175;-72
2021/07/08 08:11:35;;;;;;;2.40;1.53;;;;;;;21.18;80.59;100902.25;5070705;28;20171;-73
2021/07/08 08:14:00;;;;;;;1.93;1.60;;;;;;;21.15;81.37;100902.22;5069499;28;20178;-72
2021/07/08 08:16:25;;;;;;;1.60;1.50;;;;;;;21.16;81.88;100906.59;5069724;28;20652;-72
2021/07/08 08:18:51;;;;;;;1.60;1.50;;;;;;;21.12;81.46;100914.03;5069638;28;20167;-72
2021/07/08 08:21:16;;;;;;;1.70;1.53;;;;;;;21.11;81.66;100924.34;5070118;28;20171;-72
2021/07/08 08:23:42;;;;;;;1.87;1.73;;;;;;;21.15;82.26;100925.25;5065914;28;20297;-72
2021/07/08 08:26:07;;;;;;;1.80;1.70;;;;;;;21.26;82.67;100926.22;5070208;28;20528;-73
2021/07/08 08:28:32;;;;;;;2.17;2.00;;;;;;;21.24;81.92;100911.88;5070491;28;20178;-72
2021/07/08 08:30:58;;;;;;;4.47;1.67;;;;;;;21.05;80.24;100918.31;5070259;28;20217;-72
2021/07/08 08:33:23;;;;;;;2.27;2.07;;;;;;;21.31;79.33;100914.81;5070504;28;20246;-71
2021/07/08 08:35:49;;;;;;;3.93;1.43;;;;;;;21.41;79.18;100910.59;5070399;28;20202;-72
2021/07/08 08:38:15;;;;;;;1.63;1.53;;;;;;;21.20;78.23;100908.25;5070446;28;20181;-72
2021/07/08 08:40:40;;;;;;;1.73;1.63;;;;;;;21.37;77.67;100904.97;5070559;28;20232;-72
2021/07/08 08:43:06;;;;;;;1.53;1.43;;;;;;;21.52;79.22;100924.66;5068329;28;20198;-72
2021/07/08 08:45:31;;;;;;;1.73;1.50;;;;;;;21.39;79.36;100933.19;5069823;28;20179;-72
2021/07/08 08:48:23;;;;;;;1.57;1.47;;;;;;;21.37;79.52;100937.53;5070216;28;20179;-73
2021/07/08 08:50:48;;;;;;;1.23;1.23;;;;;;;21.37;78.79;100946.66;5066184;28;20187;-72
2021/07/08 08:53:16;;;;;;;1.60;1.50;;;;;;;21.34;80.15;100932.72;5070151;28;20178;-72
2021/07/08 08:55:43;;;;;;;2.13;1.50;;;;;;;21.40;80.17;100928.44;5070013;28;20175;-71
2021/07/08 08:58:14;;;;;;;1.60;1.50;;;;;;;21.50;80.81;100927.00;5069652;28;20653;-72
2021/07/08 09:00:49;;;;;;;1.50;1.40;;;;;;;21.57;79.95;100929.91;5070122;28;20193;-72
2021/07/08 09:03:15;;;;;;;1.60;1.50;;;;;;;21.57;78.15;100927.94;5069707;28;20197;-72
2021/07/08 09:05:43;;;;;;;1.53;1.43;;;;;;;21.62;76.42;100938.72;5071767;28;20243;-72
2021/07/08 09:08:08;;;;;;;1.90;1.47;;;;;;;21.68;77.37;100944.75;5073455;28;20815;-72
2021/07/08 09:10:34;;;;;;;2.27;2.13;;;;;;;21.77;77.54;100942.53;5073391;28;20174;-72
2021/07/08 09:13:00;;;;;;;1.87;1.40;;;;;;;21.72;76.66;100940.06;5073206;28;20324;-72
2021/07/08 09:15:25;;;;;;;2.17;1.70;;;;;;;21.72;75.77;100930.94;5073326;28;20174;-72
2021/07/08 09:17:51;;;;;;;1.80;1.70;;;;;;;21.80;76.08;100933.41;5073729;28;20198;-72
2021/07/08 09:20:19;;;;;;;1.40;1.30;;;;;;;21.97;75.81;100927.28;5073009;28;20219;-72
2021/07/08 09:22:45;;;;;;;1.40;1.30;;;;;;;22.19;77.03;100913.69;5072830;28;20709;-72
2021/07/08 09:25:20;;;;;;;1.90;1.60;;;;;;;22.29;76.89;100921.38;5073302;28;20195;-72
2021/07/08 09:27:47;;;;;;;1.40;1.40;;;;;;;22.35;75.60;100914.28;5071668;28;20603;-72
2021/07/08 09:30:28;;;;;;;3.00;1.90;;;;;;;22.27;77.06;100918.16;5072967;28;20646;-72
2021/07/08 09:32:54;;;;;;;1.50;1.40;;;;;;;22.15;75.37;100922.00;5072848;28;20228;-72
2021/07/08 09:35:34;;;;;;;2.90;1.90;;;;;;;22.25;75.35;100918.53;5072963;28;20183;-72
2021/07/08 09:38:26;;;;;;;1.63;1.53;;;;;;;22.45;75.70;100932.31;5072919;28;20639;-72
2021/07/08 09:41:25;;;;;;;2.00;1.90;;;;;;;22.21;75.95;100928.03;5068683;28;20642;-72
2021/07/08 09:43:51;;;;;;;2.50;2.13;;;;;;;22.18;75.28;100928.81;5028767;28;20215;-72
2021/07/08 09:46:17;;;;;;;1.77;1.67;;;;;;;22.27;75.17;100932.06;5072577;28;20183;-72
2021/07/08 09:49:14;;;;;;;1.53;1.43;;;;;;;22.12;74.40;100928.31;5072638;28;20555;-72
2021/07/08 09:51:41;;;;;;;2.43;1.67;;;;;;;22.34;75.76;100929.41;5027646;28;20535;-72
2021/07/08 09:54:25;;;;;;;2.20;1.80;;;;;;;22.29;73.08;100931.72;5072710;28;20192;-72
2021/07/08 09:56:53;;;;;;;3.17;1.80;;;;;;;22.10;72.85;100925.13;5072579;28;20170;-72
2021/07/08 09:59:20;;;;;;;3.00;2.03;;;;;;;22.51;73.95;100928.78;5072524;28;20261;-72
2021/07/08 10:01:55;;;;;;;3.07;1.93;;;;;;;22.51;72.50;100931.59;5071836;28;20193;-72
2021/07/08 10:04:20;;;;;;;3.07;2.07;;;;;;;22.28;73.15;100930.94;5072714;28;20179;-72
2021/07/08 10:06:46;;;;;;;3.43;1.47;;;;;;;22.45;73.85;100935.91;5072329;28;20200;-72
2021/07/08 10:09:17;;;;;;;2.23;1.80;;;;;;;22.45;73.23;100921.97;5072379;28;20541;-72
2021/07/08 10:11:55;;;;;;;2.40;1.87;;;;;;;22.70;73.99;100927.78;5072188;28;20174;-72
2021/07/08 10:14:21;;;;;;;3.07;2.30;;;;;;;22.58;71.43;100921.72;5072276;28;20183;-72
2021/07/08 10:16:51;;;;;;;2.20;1.70;;;;;;;22.46;70.87;100923.56;5071901;28;20179;-72
2021/07/08 10:19:21;;;;;;;2.20;2.10;;;;;;;22.58;71.63;100919.72;5072223;28;20176;-71
2021/07/08 10:21:48;;;;;;;1.93;1.83;;;;;;;22.47;70.91;100921.59;5070732;28;20533;-72
2021/07/08 10:24:15;;;;;;;2.70;1.80;;;;;;;22.85;72.48;100912.84;5071917;28;20205;-72
2021/07/08 10:26:42;;;;;;;1.80;1.70;;;;;;;23.23;73.60;100908.03;5071936;28;20219;-72
2021/07/08 10:29:09;;;;;;;4.17;2.20;;;;;;;23.35;70.72;100912.50;5071976;28;20185;-72
2021/07/08 10:31:35;;;;;;;2.10;2.00;;;;;;;23.54;69.34;100906.66;5072014;28;20226;-72
2021/07/08 10:34:13;;;;;;;2.03;1.90;;;;;;;23.28;67.36;100906.84;5071936;28;20525;-71
2021/07/08 10:36:50;;;;;;;2.33;1.70;;;;;;;23.42;68.54;100909.75;5072017;28;20538;-72
2021/07/08 10:39:22;;;;;;;8.93;1.97;;;;;;;23.00;68.55;100908.25;5071700;28;20175;-72
2021/07/08 10:41:50;;;;;;;1.80;1.70;;;;;;;23.09;68.29;100896.75;5070163;28;20717;-72
2021/07/08 10:44:33;;;;;;;1.77;1.60;;;;;;;23.03;68.99;100901.91;5071750;28;20634;-72
2021/07/08 10:47:00;;;;;;;2.10;1.63;;;;;;;22.77;70.45;100904.78;5071531;28;20591;-71
2021/07/08 10:49:36;;;;;;;2.23;2.03;;;;;;;22.71;70.76;100898.78;5071472;28;20179;-72
2021/07/08 10:52:02;;;;;;;1.90;1.80;;;;;;;23.17;72.95;100897.63;5070152;28;20638;-72
2021/07/08 10:54:29;;;;;;;2.77;1.70;;;;;;;23.37;70.93;100885.03;5071352;28;20175;-72
2021/07/08 10:56:57;;;;;;;2.23;1.70;;;;;;;23.23;68.65;100896.06;5071331;28;20209;-72
2021/07/08 10:59:35;;;;;;;2.80;1.63;;;;;;;23.27;69.95;100892.09;5071165;28;20177;-72
2021/07/08 11:02:01;;;;;;;3.73;1.60;;;;;;;23.17;69.03;100894.84;5070752;28;20414;-72
2021/07/08 11:04:48;;;;;;;2.13;1.50;;;;;;;23.11;68.71;100895.19;5071146;28;20174;-72
2021/07/08 11:07:18;;;;;;;2.00;1.87;;;;;;;23.22;69.31;100889.69;5071173;28;20170;-72
2021/07/08 11:10:05;;;;;;;1.67;1.57;;;;;;;23.52;66.59;100886.72;5071024;28;20261;-72
2021/07/08 11:12:35;;;;;;;8.33;1.90;;;;;;;23.30;67.20;100879.41;5070872;28;20174;-72
2021/07/08 11:15:03;;;;;;;1.50;1.40;;;;;;;23.45;67.18;100872.75;5071059;28;20175;-72
2021/07/08 11:17:38;;;;;;;4.47;1.60;;;;;;;23.76;67.88;100876.13;5071413;28;20205;-72
2021/07/08 11:20:28;;;;;;;2.60;2.17;;;;;;;23.64;65.05;100871.69;5070928;28;20171;-72
2021/07/08 11:22:53;;;;;;;1.60;1.50;;;;;;;23.92;64.87;100873.81;5070958;28;20241;-72
2021/07/08 11:25:19;;;;;;;3.93;1.73;;;;;;;24.01;64.48;100872.28;5070705;28;20216;-72
2021/07/08 11:27:47;;;;;;;1.60;1.50;;;;;;;24.01;64.36;100865.88;5070225;28;20186;-71